Time;durP1;ratioP1;P1;durP2;ratioP2;P2;SDS_P1;SDS_P2;PMS_P1;PMS_P2;Temp;Humidity;BMP_temperature;BMP_pressure;BME280_temperature;BME280_humidity;BME280_pressure;Samples;Min_cycle;Max_cycle;Signal;HPM_P1;HPM_P2
2023/10/20 00:03:23;;;;;;;30.30;17.60;;;;;;;6.51;100.00;98714.45;213760;1288;140522;-86
2023/10/20 00:08:23;;;;;;;30.70;16.80;;;;;;;6.47;100.00;98698.29;213977;1294;138602;-87
2023/10/20 00:13:24;;;;;;;28.70;16.80;;;;;;;6.46;100.00;98697.59;213565;1288;139959;-87
2023/10/20 00:18:25;;;;;;;27.90;16.80;;;;;;;6.42;100.00;98699.85;213947;1291;138715;-86
2023/10/20 00:23:26;;;;;;;32.70;17.40;;;;;;;6.41;100.00;98703.21;213892;1288;140030;-87
2023/10/20 00:28:26;;;;;;;34.30;18.50;;;;;;;6.40;100.00;98703.27;214368;1286;138665;-86
2023/10/20 00:33:27;;;;;;;29.30;18.30;;;;;;;6.42;100.00;98710.31;213509;1288;139606;-86
2023/10/20 00:38:27;;;;;;;28.50;17.50;;;;;;;6.41;100.00;98720.55;214307;1288;138929;-86
2023/10/20 00:43:40;;;;;;;29.40;17.10;;;;;;;6.40;100.00;98726.94;213690;1289;139876;-86
2023/10/20 00:48:41;;;;;;;28.30;17.10;;;;;;;6.37;100.00;98722.49;214226;1291;139883;-86
2023/10/20 00:53:42;;;;;;;26.20;15.40;;;;;;;6.34;100.00;98717.89;213749;1291;139207;-87
2023/10/20 00:58:43;;;;;;;20.90;12.60;;;;;;;6.34;100.00;98719.83;214109;1288;138704;-91
2023/10/20 01:03:44;;;;;;;22.20;13.00;;;;;;;6.33;100.00;98723.90;213733;1288;140183;-86
2023/10/20 01:08:44;;;;;;;22.00;13.00;;;;;;;6.30;100.00;98714.77;214382;1288;138769;-88
2023/10/20 01:13:45;;;;;;;20.80;11.70;;;;;;;6.25;100.00;98715.78;213460;1289;139768;-87
2023/10/20 01:18:45;;;;;;;20.30;12.10;;;;;;;6.24;100.00;98719.30;213995;1288;138696;-88
2023/10/20 01:23:46;;;;;;;20.80;12.20;;;;;;;6.22;100.00;98724.20;213686;1288;139841;-89
2023/10/20 01:28:46;;;;;;;17.50;10.20;;;;;;;6.21;100.00;98728.73;214118;1289;138497;-87
2023/10/20 01:33:47;;;;;;;18.90;11.20;;;;;;;6.18;100.00;98726.23;213568;1289;139726;-90
2023/10/20 01:38:47;;;;;;;20.30;11.30;;;;;;;6.14;100.00;98715.53;214036;1291;138712;-90
2023/10/20 01:43:48;;;;;;;20.30;11.00;;;;;;;6.13;100.00;98714.20;213788;1291;139593;-92
2023/10/20 01:48:48;;;;;;;19.70;11.30;;;;;;;6.10;100.00;98723.17;214056;1288;139165;-89
2023/10/20 01:53:49;;;;;;;18.00;10.40;;;;;;;6.08;100.00;98718.88;213985;1289;140095;-89
2023/10/20 01:58:49;;;;;;;22.40;12.10;;;;;;;6.08;100.00;98719.89;214377;1288;139760;-88
2023/10/20 02:03:51;;;;;;;18.90;10.60;;;;;;;6.02;100.00;98715.66;213648;1289;141484;-90
2023/10/20 02:08:51;;;;;;;19.10;10.50;;;;;;;6.00;100.00;98701.70;214091;1291;138819;-89
2023/10/20 02:13:53;;;;;;;19.20;10.50;;;;;;;5.98;100.00;98699.66;213604;1289;140128;-87
2023/10/20 02:18:53;;;;;;;20.80;11.80;;;;;;;5.96;100.00;98688.27;214262;1289;139016;-86
2023/10/20 02:23:54;;;;;;;17.70;10.40;;;;;;;5.96;100.00;98695.08;213555;1288;141202;-85
2023/10/20 02:28:54;;;;;;;18.50;10.70;;;;;;;5.95;100.00;98688.43;214200;1289;139872;-85
2023/10/20 02:33:55;;;;;;;17.80;10.60;;;;;;;5.94;100.00;98686.33;213697;1288;139417;-85
2023/10/20 02:38:55;;;;;;;18.50;10.50;;;;;;;5.92;100.00;98677.20;214149;1288;139998;-85
2023/10/20 02:43:56;;;;;;;20.30;11.30;;;;;;;5.86;100.00;98664.55;213509;1292;139824;-87
2023/10/20 02:48:56;;;;;;;19.70;10.80;;;;;;;5.87;100.00;98667.21;214112;1288;139203;-87
2023/10/20 02:53:57;;;;;;;14.20;8.50;;;;;;;5.85;100.00;98663.53;214125;1288;140161;-86
2023/10/20 02:58:57;;;;;;;19.50;9.50;;;;;;;5.87;100.00;98665.88;214594;1288;138589;-86
2023/10/20 03:03:58;;;;;;;18.90;9.70;;;;;;;5.85;100.00;98664.70;213967;1291;139525;-87
2023/10/20 03:09:00;;;;;;;15.40;8.70;;;;;;;5.84;100.00;98654.27;214305;1289;138658;-87
2023/10/20 03:14:00;;;;;;;15.30;8.40;;;;;;;5.83;100.00;98657.06;214221;1286;139794;-88
2023/10/20 03:19:04;;;;;;;13.70;7.00;;;;;;;5.79;100.00;98650.40;214891;1288;140238;-86
2023/10/20 03:24:05;;;;;;;15.70;8.20;;;;;;;5.76;100.00;98651.80;214417;1287;140163;-89
2023/10/20 03:29:05;;;;;;;14.90;8.10;;;;;;;5.75;100.00;98649.39;214408;1288;137985;-87
2023/10/20 03:34:05;;;;;;;14.60;8.10;;;;;;;5.77;100.00;98653.67;213837;1288;139741;-86
2023/10/20 03:39:19;;;;;;;14.90;8.30;;;;;;;5.76;100.00;98651.71;214178;1288;138486;-87
2023/10/20 03:44:21;;;;;;;15.00;7.90;;;;;;;5.73;100.00;98650.85;214152;1288;139090;-86
2023/10/20 03:49:21;;;;;;;13.30;7.80;;;;;;;5.72;100.00;98646.41;213541;1291;139707;-86
2023/10/20 03:54:24;;;;;;;13.80;7.70;;;;;;;5.71;100.00;98650.30;213944;1288;138550;-86
2023/10/20 03:59:25;;;;;;;16.70;8.00;;;;;;;5.70;100.00;98643.76;213759;1288;139384;-88
2023/10/20 04:04:25;;;;;;;12.50;7.40;;;;;;;5.66;100.00;98634.93;214185;1291;140000;-90
2023/10/20 04:09:29;;;;;;;13.40;6.70;;;;;;;5.64;100.00;98637.81;213584;1291;139937;-90
2023/10/20 04:14:29;;;;;;;15.10;7.90;;;;;;;5.63;100.00;98629.71;214153;1290;139274;-88
2023/10/20 04:19:30;;;;;;;11.60;6.30;;;;;;;5.61;100.00;98617.08;213649;1289;140374;-88
2023/10/20 04:24:31;;;;;;;12.70;7.00;;;;;;;5.59;100.00;98609.83;214272;1289;138571;-88
2023/10/20 04:29:35;;;;;;;14.60;7.30;;;;;;;5.58;100.00;98618.09;213820;1291;162085;-88
2023/10/20 04:56:49;;;;;;;9.50;5.40;;;;;;;5.51;100.00;98625.63;214447;1288;138531;-87
2023/10/20 05:06:26;;;;;;;13.40;5.70;;;;;;;5.50;100.00;98623.29;214422;1291;138096;-90
2023/10/20 05:11:27;;;;;;;14.60;6.50;;;;;;;5.47;100.00;98626.40;213943;1291;139564;-90
2023/10/20 05:16:28;;;;;;;11.30;6.20;;;;;;;5.46;100.00;98617.75;214440;1289;139171;-91
2023/10/20 05:21:29;;;;;;;11.70;6.50;;;;;;;5.46;100.00;98616.11;213871;1289;139255;-89
2023/10/20 05:26:33;;;;;;;15.80;7.20;;;;;;;5.45;100.00;98602.86;214236;1289;138463;-91
2023/10/20 05:31:34;;;;;;;12.70;7.10;;;;;;;5.43;100.00;98598.33;213908;1289;140441;-89
2023/10/20 05:36:34;;;;;;;13.00;6.70;;;;;;;5.44;100.00;98604.64;214235;1289;138702;-90
2023/10/20 05:41:35;;;;;;;12.40;6.70;;;;;;;5.43;100.00;98599.42;214131;1289;139353;-91
2023/10/20 05:46:37;;;;;;;11.30;6.30;;;;;;;5.42;100.00;98583.22;214436;1294;138329;-90
2023/10/20 05:51:38;;;;;;;10.40;5.70;;;;;;;5.41;100.00;98588.66;214010;1288;139693;-91
2023/10/20 05:56:38;;;;;;;11.40;6.60;;;;;;;5.43;100.00;98581.03;214573;1291;138794;-91
2023/10/20 06:01:39;;;;;;;12.30;7.10;;;;;;;5.43;100.00;98580.73;214214;1288;140527;-88
2023/10/20 06:06:40;;;;;;;11.30;5.80;;;;;;;5.45;100.00;98595.46;214401;1288;138568;-89
2023/10/20 06:11:40;;;;;;;13.50;7.40;;;;;;;5.48;100.00;98599.51;214296;1289;139664;-88
2023/10/20 06:16:42;;;;;;;13.50;7.70;;;;;;;5.49;100.00;98600.68;214809;1291;138179;-89
2023/10/20 06:21:42;;;;;;;16.30;7.40;;;;;;;5.51;100.00;98596.02;213976;1289;139411;-89
2023/10/20 06:26:43;;;;;;;14.50;7.20;;;;;;;5.51;100.00;98579.18;214577;1291;138853;-89
2023/10/20 06:31:43;;;;;;;13.50;6.90;;;;;;;5.52;100.00;98573.10;214034;1288;139868;-89
2023/10/20 06:36:48;;;;;;;13.50;7.60;;;;;;;5.51;100.00;98559.07;214263;1291;138719;-88
2023/10/20 06:41:49;;;;;;;15.60;7.90;;;;;;;5.50;100.00;98560.55;214542;1288;140274;-89
2023/10/20 06:46:51;;;;;;;14.50;7.50;;;;;;;5.53;100.00;98567.64;215018;1285;138475;-91
2023/10/20 06:51:51;;;;;;;15.10;8.40;;;;;;;5.54;100.00;98560.39;214319;1286;139618;-90
2023/10/20 06:56:52;;;;;;;18.30;7.90;;;;;;;5.54;100.00;98560.39;214754;1285;138431;-90
2023/10/20 07:01:59;;;;;;;15.90;8.40;;;;;;;5.56;100.00;98556.41;214264;1288;139761;-92
2023/10/20 07:07:00;;;;;;;14.30;7.40;;;;;;;5.59;100.00;98563.20;215337;1283;138433;-95
2023/10/20 07:12:01;;;;;;;18.40;9.20;;;;;;;5.60;100.00;98563.44;214591;1286;141244;-90
2023/10/20 07:17:03;;;;;;;15.70;8.60;;;;;;;5.63;100.00;98575.29;214895;1285;138071;-90
2023/10/20 07:22:04;;;;;;;14.80;8.50;;;;;;;5.67;100.00;98558.30;215262;1285;139540;-87
2023/10/20 07:27:05;;;;;;;15.50;8.30;;;;;;;5.69;100.00;98550.34;214784;1288;138513;-89
2023/10/20 07:32:07;;;;;;;16.10;8.50;;;;;;;5.73;100.00;98546.14;214229;1285;139963;-89
2023/10/20 07:37:07;;;;;;;18.10;9.20;;;;;;;5.73;100.00;98546.14;214863;1286;138404;-92
2023/10/20 07:42:08;;;;;;;18.70;9.40;;;;;;;5.72;100.00;98531.34;214556;1288;139794;-89
2023/10/20 07:47:09;;;;;;;14.60;8.10;;;;;;;5.70;100.00;98528.36;215262;1284;96674;-92
2023/10/20 07:52:09;;;;;;;18.20;9.50;;;;;;;5.70;100.00;98529.22;214660;1285;139440;-92
2023/10/20 07:57:10;;;;;;;13.40;7.70;;;;;;;5.70;100.00;98531.10;215025;1288;138632;-91
2023/10/20 08:02:11;;;;;;;17.20;8.80;;;;;;;5.71;100.00;98533.42;214969;1286;142440;-92
2023/10/20 08:07:11;;;;;;;19.50;9.10;;;;;;;5.72;100.00;98528.75;215233;1285;140271;-90
2023/10/20 08:12:13;;;;;;;16.40;8.50;;;;;;;5.75;100.00;98519.70;214687;1288;140669;-89
2023/10/20 08:17:14;;;;;;;17.30;8.60;;;;;;;5.79;100.00;98503.71;215127;1286;96608;-89
2023/10/20 08:22:14;;;;;;;13.80;7.50;;;;;;;5.81;100.00;98500.39;214834;1286;139638;-89
2023/10/20 08:27:18;;;;;;;18.30;7.90;;;;;;;5.80;100.00;98498.35;215897;1285;138900;-88
2023/10/20 08:32:19;;;;;;;16.80;8.50;;;;;;;5.76;100.00;98484.92;215244;1286;139479;-93
2023/10/20 08:37:20;;;;;;;15.00;8.10;;;;;;;5.80;100.00;98488.23;215800;1291;139428;-89
2023/10/20 08:42:21;;;;;;;18.00;8.50;;;;;;;5.84;100.00;98503.27;215538;1285;139477;-85
2023/10/20 08:47:23;;;;;;;16.00;6.90;;;;;;;5.86;100.00;98505.08;216970;1288;98013;-89
2023/10/20 08:52:25;;;;;;;16.10;7.40;;;;;;;5.87;100.00;98488.52;215348;1286;140264;-92
2023/10/20 08:57:27;;;;;;;14.70;7.60;;;;;;;5.86;100.00;98489.63;217306;1289;139150;-90
2023/10/20 09:02:41;;;;;;;13.40;6.90;;;;;;;5.83;100.00;98486.66;214497;1293;139168;-90
2023/10/20 09:07:50;;;;;;;14.00;6.80;;;;;;;5.80;100.00;98477.77;214883;1286;138278;-92
2023/10/20 09:12:51;;;;;;;17.20;7.10;;;;;;;5.80;100.00;98479.10;214196;1285;139184;-90
2023/10/20 09:17:53;;;;;;;15.00;7.10;;;;;;;5.80;100.00;98467.00;214663;1286;109224;-89
2023/10/20 09:22:54;;;;;;;16.20;7.80;;;;;;;5.80;100.00;98465.07;214084;1288;139815;-89
2023/10/20 09:27:55;;;;;;;30.20;14.90;;;;;;;5.81;100.00;98456.33;214646;1289;138810;-88
2023/10/20 09:32:55;;;;;;;13.10;6.50;;;;;;;5.80;100.00;98443.53;214094;1289;139885;-90
2023/10/20 09:38:01;;;;;;;14.40;7.80;;;;;;;5.77;100.00;98440.56;214521;1285;138515;-90
2023/10/20 09:43:07;;;;;;;14.40;7.50;;;;;;;5.74;100.00;98433.61;214012;1289;139180;-89
2023/10/20 09:48:19;;;;;;;15.60;7.60;;;;;;;5.73;100.00;98441.58;214624;1289;138300;-88
2023/10/20 09:53:19;;;;;;;16.30;7.50;;;;;;;5.72;100.00;98446.96;214104;1287;139230;-90
2023/10/20 09:58:25;;;;;;;14.30;7.20;;;;;;;5.72;100.00;98448.91;214478;1292;138340;-87
2023/10/20 10:03:29;;;;;;;17.20;7.90;;;;;;;5.77;100.00;98450.84;214133;1287;139905;-88
2023/10/20 10:08:30;;;;;;;17.10;7.80;;;;;;;5.75;100.00;98447.19;215848;1286;138541;-88
2023/10/20 10:13:32;;;;;;;19.00;8.10;;;;;;;5.77;100.00;98442.35;218459;1288;139239;-89
2023/10/20 10:18:33;;;;;;;17.30;7.90;;;;;;;5.80;100.00;98437.37;218999;1289;138395;-86
2023/10/20 10:23:34;;;;;;;14.80;7.20;;;;;;;5.78;100.00;98423.71;218425;1285;139267;-88
2023/10/20 10:28:34;;;;;;;14.40;7.10;;;;;;;5.79;100.00;98416.70;217214;1289;138775;-88
2023/10/20 10:33:35;;;;;;;16.90;8.50;;;;;;;5.85;100.00;98416.39;214672;1289;140314;-89
2023/10/20 10:38:43;;;;;;;14.10;7.20;;;;;;;5.85;100.00;98407.73;215013;1289;138633;-89
2023/10/20 10:43:43;;;;;;;11.40;6.00;;;;;;;5.86;100.00;98403.90;214157;1291;140296;-91
2023/10/20 10:48:45;;;;;;;16.00;7.30;;;;;;;5.88;100.00;98390.73;214246;1292;138947;-90
2023/10/20 10:53:46;;;;;;;20.60;8.80;;;;;;;5.88;100.00;98386.67;213918;1288;139755;-90
2023/10/20 10:58:46;;;;;;;15.90;7.50;;;;;;;5.90;100.00;98387.05;214233;1284;138514;-89
2023/10/20 11:03:47;;;;;;;17.80;7.80;;;;;;;5.88;100.00;98377.07;213759;1289;140197;-92
2023/10/20 11:08:48;;;;;;;15.70;7.50;;;;;;;5.91;100.00;98373.73;214358;1285;138351;-90
2023/10/20 11:13:49;;;;;;;17.00;7.60;;;;;;;5.94;100.00;98366.45;213781;1288;139763;-91
2023/10/20 11:18:50;;;;;;;14.70;7.10;;;;;;;5.94;100.00;98365.52;214635;1288;138354;-90
2023/10/20 11:23:51;;;;;;;17.60;8.80;;;;;;;5.87;100.00;98371.07;214056;1291;139568;-89
2023/10/20 11:28:52;;;;;;;15.90;8.30;;;;;;;5.81;100.00;98379.52;214600;1285;138210;-92
2023/10/20 11:33:52;;;;;;;18.90;9.50;;;;;;;5.77;100.00;98392.20;215359;1285;139294;-87
2023/10/20 11:38:53;;;;;;;17.80;9.10;;;;;;;5.74;100.00;98397.13;214833;1289;140052;-88
2023/10/20 11:43:54;;;;;;;14.30;7.90;;;;;;;5.73;100.00;98405.23;214148;1288;139765;-86
2023/10/20 11:48:55;;;;;;;18.30;8.30;;;;;;;5.74;100.00;98405.16;214825;1288;138481;-89
2023/10/20 11:53:56;;;;;;;17.20;7.90;;;;;;;5.73;100.00;98406.09;214432;1284;139711;-88
2023/10/20 11:58:58;;;;;;;15.60;7.90;;;;;;;5.69;100.00;98394.02;214906;1286;138411;-89
2023/10/20 12:04:00;;;;;;;19.30;9.60;;;;;;;5.68;100.00;98389.04;214195;1286;141222;-89
2023/10/20 12:09:03;;;;;;;22.30;9.30;;;;;;;5.67;100.00;98367.98;214634;1286;138355;-88
2023/10/20 12:14:04;;;;;;;15.80;8.30;;;;;;;5.63;100.00;98363.79;214555;1285;140159;-90
2023/10/20 12:19:06;;;;;;;15.40;7.60;;;;;;;5.65;100.00;98363.16;214920;1285;138394;-88
2023/10/20 12:24:07;;;;;;;17.10;7.90;;;;;;;5.64;100.00;98351.47;214468;1288;139344;-88
2023/10/20 12:29:09;;;;;;;14.20;6.60;;;;;;;5.63;100.00;98349.61;214395;1291;139468;-87
2023/10/20 12:34:10;;;;;;;18.90;7.40;;;;;;;5.63;100.00;98341.73;214772;1285;138333;-87
2023/10/20 12:39:17;;;;;;;16.50;7.10;;;;;;;5.59;100.00;98329.11;214227;1288;140730;-87
2023/10/20 12:44:18;;;;;;;15.20;6.90;;;;;;;5.56;100.00;98323.27;214887;1285;139091;-91
2023/10/20 12:49:19;;;;;;;12.60;6.20;;;;;;;5.51;100.00;98321.03;214447;1285;139632;-89
2023/10/20 12:54:20;;;;;;;14.20;6.40;;;;;;;5.47;100.00;98302.80;214909;1285;138329;-91
2023/10/20 12:59:21;;;;;;;13.10;5.90;;;;;;;5.42;100.00;98282.95;215096;1288;139406;-89
2023/10/20 13:04:25;;;;;;;12.50;4.70;;;;;;;5.38;100.00;98271.11;216028;1285;139047;-89
2023/10/20 13:09:26;;;;;;;28.80;10.50;;;;;;;5.32;100.00;98272.08;214918;1285;139830;-89
2023/10/20 13:14:28;;;;;;;21.90;9.40;;;;;;;5.29;100.00;98294.20;215585;1285;139228;-88
2023/10/20 13:19:29;;;;;;;13.50;6.40;;;;;;;5.27;100.00;98306.59;214756;1286;141899;-90
2023/10/20 13:24:32;;;;;;;12.60;6.00;;;;;;;5.26;100.00;98310.57;214966;1285;138307;-89
2023/10/20 13:29:33;;;;;;;15.90;7.40;;;;;;;5.25;100.00;98314.45;214472;1288;139487;-89
2023/10/20 13:34:33;;;;;;;14.20;6.60;;;;;;;5.26;100.00;98319.60;214694;1285;138573;-89
2023/10/20 13:39:34;;;;;;;13.60;5.80;;;;;;;5.24;100.00;98312.75;214273;1285;139430;-88
2023/10/20 13:44:35;;;;;;;11.20;5.10;;;;;;;5.22;100.00;98303.88;215074;1285;138505;-89
2023/10/20 13:49:36;;;;;;;10.30;4.90;;;;;;;5.20;100.00;98308.95;214140;1288;140034;-91
2023/10/20 13:54:37;;;;;;;10.30;4.30;;;;;;;5.19;100.00;98309.41;214516;1288;138297;-86
2023/10/20 13:59:38;;;;;;;9.80;4.30;;;;;;;5.18;100.00;98307.23;214677;1285;139645;-89
2023/10/20 14:04:39;;;;;;;9.50;4.70;;;;;;;5.16;100.00;98299.52;215831;1285;138236;-90
2023/10/20 14:09:40;;;;;;;10.10;5.10;;;;;;;5.13;100.00;98296.18;215294;1285;139462;-90
2023/10/20 14:14:42;;;;;;;9.00;4.30;;;;;;;5.11;100.00;98309.98;215563;1286;139451;-88
2023/10/20 14:19:45;;;;;;;11.00;4.70;;;;;;;5.09;100.00;98306.39;215412;1288;139503;-89
2023/10/20 14:24:46;;;;;;;11.80;3.80;;;;;;;5.09;100.00;98316.20;215963;1285;139384;-89
2023/10/20 14:29:49;;;;;;;11.00;4.20;;;;;;;5.05;100.00;98303.52;215278;1285;140525;-90
2023/10/20 14:34:51;;;;;;;8.10;3.40;;;;;;;5.04;100.00;98286.77;215586;1288;138684;-88
2023/10/20 14:39:52;;;;;;;11.60;5.60;;;;;;;5.00;100.00;98275.33;214415;1285;139352;-92
2023/10/20 14:44:53;;;;;;;7.80;3.40;;;;;;;5.00;100.00;98268.23;215024;1285;139362;-89
2023/10/20 14:49:53;;;;;;;7.20;3.40;;;;;;;4.99;100.00;98268.02;214540;1285;140070;-88
2023/10/20 14:54:55;;;;;;;9.10;4.60;;;;;;;4.97;100.00;98276.81;214858;1285;138407;-90
2023/10/20 14:59:56;;;;;;;8.80;4.10;;;;;;;4.95;100.00;98283.73;214525;1285;139191;-88
2023/10/20 15:04:56;;;;;;;8.00;4.10;;;;;;;4.93;100.00;98285.54;214846;1285;138053;-86
2023/10/20 15:10:00;;;;;;;8.40;4.00;;;;;;;4.90;100.00;98284.38;214401;1285;141705;-91
2023/10/20 15:15:00;;;;;;;8.50;4.00;;;;;;;4.88;100.00;98277.99;214748;1289;138210;-88
2023/10/20 15:20:02;;;;;;;12.90;5.90;;;;;;;4.86;100.00;98276.05;214479;1285;139110;-87
2023/10/20 15:25:04;;;;;;;9.70;5.20;;;;;;;4.83;100.00;98258.69;215091;1285;138811;-86
2023/10/20 15:30:06;;;;;;;9.20;3.90;;;;;;;4.81;100.00;98249.73;214543;1285;140477;-87
2023/10/20 15:35:09;;;;;;;15.10;8.50;;;;;;;4.80;100.00;98258.22;215018;1284;138108;-90
2023/10/20 15:40:11;;;;;;;13.30;6.20;;;;;;;4.78;100.00;98258.69;214318;1285;139692;-88
2023/10/20 15:45:11;;;;;;;14.70;6.20;;;;;;;4.77;100.00;98265.70;215205;1284;139041;-87
2023/10/20 15:50:12;;;;;;;10.50;5.80;;;;;;;4.76;100.00;98267.26;214414;1285;139889;-87
2023/10/20 15:55:12;;;;;;;12.00;5.70;;;;;;;4.74;100.00;98272.72;215094;1286;139414;-88
2023/10/20 16:00:14;;;;;;;11.20;5.30;;;;;;;4.73;100.00;98264.46;214477;1285;139670;-89
2023/10/20 16:05:14;;;;;;;9.60;4.70;;;;;;;4.73;100.00;98271.38;215091;1285;96978;-88
2023/10/20 16:10:15;;;;;;;8.90;4.50;;;;;;;4.73;100.00;98264.08;214313;1285;139362;-89
2023/10/20 16:15:15;;;;;;;10.10;4.50;;;;;;;4.73;100.00;98262.58;214925;1285;138301;-88
2023/10/20 16:20:18;;;;;;;11.00;5.30;;;;;;;4.72;100.00;98266.64;214305;1288;139546;-89
2023/10/20 16:25:18;;;;;;;9.30;4.60;;;;;;;4.72;100.00;98284.15;214887;1288;138614;-87
2023/10/20 16:30:19;;;;;;;9.10;4.40;;;;;;;4.70;100.00;98290.30;214495;1285;139882;-90
2023/10/20 16:35:20;;;;;;;9.50;4.20;;;;;;;4.69;100.00;98295.91;215254;1285;98418;-89
2023/10/20 16:40:20;;;;;;;10.10;4.40;;;;;;;4.70;100.00;98294.20;214427;1285;140521;-90
2023/10/20 16:45:22;;;;;;;7.50;3.70;;;;;;;4.69;100.00;98286.40;215231;1285;138596;-88
2023/10/20 16:50:22;;;;;;;9.20;4.50;;;;;;;4.67;100.00;98288.83;214479;1288;139265;-89
2023/10/20 16:55:23;;;;;;;7.80;3.70;;;;;;;4.66;100.00;98276.21;215044;1286;138357;-89
2023/10/20 17:00:24;;;;;;;9.90;4.90;;;;;;;4.64;100.00;98264.07;214618;1285;139933;-88
2023/10/20 17:05:25;;;;;;;8.90;4.80;;;;;;;4.63;100.00;98245.39;215382;1285;96587;-87
2023/10/20 17:10:25;;;;;;;11.30;5.20;;;;;;;4.63;100.00;98223.22;215317;1285;138647;-87
2023/10/20 17:15:26;;;;;;;10.00;5.30;;;;;;;4.63;100.00;98237.54;214733;1285;139285;-85
2023/10/20 17:20:26;;;;;;;9.70;5.40;;;;;;;4.64;100.00;98249.90;214407;1288;139467;-88
2023/10/20 17:25:26;;;;;;;10.50;4.90;;;;;;;4.65;100.00;98252.70;214879;1284;138301;-88
2023/10/20 17:30:28;;;;;;;11.10;5.30;;;;;;;4.65;100.00;98252.71;214170;1284;139234;-85
2023/10/20 17:35:31;;;;;;;12.50;6.10;;;;;;;4.65;100.00;98248.35;215076;1285;96726;-85
2023/10/20 17:40:35;;;;;;;10.90;5.40;;;;;;;4.66;100.00;98237.53;214546;1285;139372;-86
2023/10/20 17:45:39;;;;;;;13.40;6.40;;;;;;;4.67;100.00;98238.55;215152;1285;138398;-89
2023/10/20 17:50:40;;;;;;;14.00;6.50;;;;;;;4.68;100.00;98239.70;214601;1284;139973;-87
2023/10/20 17:55:41;;;;;;;15.10;6.80;;;;;;;4.69;100.00;98248.50;214895;1285;138730;-88
2023/10/20 18:00:41;;;;;;;11.20;6.00;;;;;;;4.71;100.00;98239.48;214169;1285;139342;-87
2023/10/20 18:05:42;;;;;;;11.80;6.30;;;;;;;4.71;100.00;98237.14;215439;1288;96721;-89
2023/10/20 18:10:43;;;;;;;11.50;6.60;;;;;;;4.73;100.00;98218.30;214103;1288;139854;-86
2023/10/20 18:15:45;;;;;;;12.20;5.80;;;;;;;4.75;100.00;98207.01;214816;1284;138505;-87
2023/10/20 18:20:47;;;;;;;11.30;6.00;;;;;;;4.77;100.00;98184.35;214767;1285;139683;-87
2023/10/20 18:25:47;;;;;;;12.30;6.10;;;;;;;4.78;100.00;98189.64;215423;1284;138482;-87
2023/10/20 18:30:48;;;;;;;10.40;6.20;;;;;;;4.80;100.00;98193.30;214917;1285;140416;-85
2023/10/20 18:35:48;;;;;;;12.30;6.10;;;;;;;4.82;100.00;98177.02;215437;1286;96733;-87
2023/10/20 18:40:49;;;;;;;11.30;5.90;;;;;;;4.84;100.00;98187.85;214401;1285;139264;-87
2023/10/20 18:45:53;;;;;;;13.40;6.90;;;;;;;4.88;100.00;98195.62;214803;1285;138388;-87
2023/10/20 18:51:09;;;;;;;12.30;6.30;;;;;;;4.91;100.00;98205.98;214292;1283;445386;-87
2023/10/20 18:56:10;;;;;;;13.40;7.00;;;;;;;4.94;100.00;98213.50;215033;1288;138583;-86
2023/10/20 19:01:11;;;;;;;13.10;6.80;;;;;;;4.97;100.00;98214.20;214215;1284;139835;-87
2023/10/20 19:06:12;;;;;;;13.60;7.10;;;;;;;4.99;100.00;98197.69;215098;1285;138280;-86
2023/10/20 19:11:13;;;;;;;10.60;6.10;;;;;;;5.01;100.00;98192.15;214501;1284;141222;-86
2023/10/20 19:16:14;;;;;;;12.50;8.10;;;;;;;5.04;100.00;98207.48;214845;1288;138750;-83
2023/10/20 19:21:14;;;;;;;11.90;6.90;;;;;;;5.04;100.00;98207.02;214046;1288;139849;-85
2023/10/20 19:26:15;;;;;;;14.20;7.30;;;;;;;5.07;100.00;98197.83;214985;1284;138415;-85
2023/10/20 19:31:15;;;;;;;13.30;8.10;;;;;;;5.10;100.00;98205.14;214428;1285;139465;-83
2023/10/20 19:36:16;;;;;;;14.00;7.80;;;;;;;5.12;100.00;98192.13;214990;1285;138784;-86
2023/10/20 19:41:17;;;;;;;14.60;8.70;;;;;;;5.16;100.00;98211.19;214757;1285;139177;-85
2023/10/20 19:46:18;;;;;;;14.10;8.80;;;;;;;5.18;100.00;98204.41;214851;1286;138807;-85
2023/10/20 19:51:19;;;;;;;15.20;9.20;;;;;;;5.22;100.00;98205.95;214540;1285;139641;-84
2023/10/20 19:56:19;;;;;;;15.20;8.40;;;;;;;5.26;100.00;98208.20;215376;1285;138391;-84
2023/10/20 20:01:20;;;;;;;13.10;8.30;;;;;;;5.30;100.00;98226.96;214897;1285;139944;-83
2023/10/20 20:06:20;;;;;;;14.20;8.50;;;;;;;5.34;100.00;98231.55;215387;1284;138735;-84
2023/10/20 20:11:21;;;;;;;19.70;11.10;;;;;;;5.38;100.00;98227.56;214800;1288;139557;-83
2023/10/20 20:16:22;;;;;;;14.60;8.80;;;;;;;5.42;100.00;98223.10;215370;1288;138351;-84
2023/10/20 20:21:22;;;;;;;12.50;7.80;;;;;;;5.46;100.00;98221.21;214520;1285;140111;-83
2023/10/20 20:26:23;;;;;;;13.80;7.40;;;;;;;5.49;100.00;98234.28;215192;1286;138516;-84
2023/10/20 20:31:24;;;;;;;14.20;8.70;;;;;;;5.52;100.00;98239.35;214631;1288;139229;-84
2023/10/20 20:36:24;;;;;;;13.90;7.80;;;;;;;5.55;100.00;98251.48;214950;1285;138320;-84
2023/10/20 20:41:25;;;;;;;13.00;7.40;;;;;;;5.58;100.00;98244.01;214593;1284;139463;-83
2023/10/20 20:46:25;;;;;;;12.70;7.60;;;;;;;5.61;100.00;98209.69;215136;1284;138192;-84
2023/10/20 20:51:26;;;;;;;15.00;8.40;;;;;;;5.64;100.00;98189.02;214527;1288;139606;-83
2023/10/20 20:56:26;;;;;;;13.50;8.40;;;;;;;5.67;100.00;98196.41;215182;1285;138896;-84
2023/10/20 21:01:27;;;;;;;20.10;11.70;;;;;;;5.67;100.00;98173.80;214421;1288;139776;-85
2023/10/20 21:06:28;;;;;;;17.80;10.30;;;;;;;5.71;100.00;98176.35;214864;1285;138741;-86
2023/10/20 21:11:28;;;;;;;31.40;16.70;;;;;;;5.73;100.00;98171.41;214932;1288;140224;-84
2023/10/20 21:16:29;;;;;;;176.00;67.90;;;;;;;5.75;100.00;98163.30;215363;1284;138257;-84
2023/10/20 21:21:29;;;;;;;112.20;52.70;;;;;;;5.77;100.00;98184.02;214574;1285;140001;-85
2023/10/20 21:26:30;;;;;;;122.60;60.90;;;;;;;5.79;100.00;98214.91;214986;1285;139226;-85
2023/10/20 21:31:31;;;;;;;132.80;61.20;;;;;;;5.83;100.00;98241.42;214679;1287;140046;-86
2023/10/20 21:36:32;;;;;;;44.20;20.10;;;;;;;5.87;100.00;98200.98;215193;1288;138806;-85
2023/10/20 21:41:32;;;;;;;58.30;24.70;;;;;;;5.89;100.00;98170.81;214782;1285;139892;-87
2023/10/20 21:46:34;;;;;;;93.00;36.40;;;;;;;5.91;100.00;98265.30;215063;1285;139090;-85
2023/10/20 21:51:34;;;;;;;26.40;13.20;;;;;;;5.95;100.00;98261.31;214044;1288;139521;-86
2023/10/20 21:56:35;;;;;;;56.70;30.60;;;;;;;5.97;100.00;98254.59;214609;1285;138521;-86
2023/10/20 22:01:37;;;;;;;21.90;12.10;;;;;;;6.00;100.00;98254.10;214467;1285;139796;-86
2023/10/20 22:06:38;;;;;;;26.60;13.60;;;;;;;6.02;100.00;98253.79;215341;1285;139011;-85
2023/10/20 22:11:40;;;;;;;16.90;10.10;;;;;;;6.03;100.00;98260.64;214865;1285;139389;-88
2023/10/20 22:16:41;;;;;;;21.70;11.50;;;;;;;6.06;100.00;98257.34;215491;1285;138389;-86
2023/10/20 22:21:42;;;;;;;21.00;11.80;;;;;;;6.08;100.00;98275.20;214363;1286;140676;-86
2023/10/20 22:26:42;;;;;;;17.20;9.70;;;;;;;6.12;100.00;98277.29;214747;1286;138704;-86
2023/10/20 22:31:42;;;;;;;17.10;9.60;;;;;;;6.14;100.00;98280.45;214326;1288;139104;-86
2023/10/20 22:36:43;;;;;;;16.50;10.10;;;;;;;6.17;100.00;98279.28;214757;1288;138421;-87
2023/10/20 22:41:43;;;;;;;17.40;9.60;;;;;;;6.20;100.00;98280.89;214456;1285;140082;-87
2023/10/20 22:46:44;;;;;;;15.70;9.90;;;;;;;6.21;100.00;98288.23;214895;1285;138155;-86
2023/10/20 22:51:44;;;;;;;16.90;10.30;;;;;;;6.25;100.00;98306.63;214397;1285;139145;-86
2023/10/20 22:56:45;;;;;;;16.10;10.00;;;;;;;6.27;100.00;98315.20;214808;1285;138607;-86
2023/10/20 23:01:45;;;;;;;16.30;9.10;;;;;;;6.29;100.00;98306.83;214393;1288;140793;-87
2023/10/20 23:06:47;;;;;;;20.90;10.10;;;;;;;6.31;100.00;98314.46;214678;1288;138340;-86
2023/10/20 23:11:47;;;;;;;17.20;10.00;;;;;;;6.33;100.00;98332.32;214432;1288;140064;-86
2023/10/20 23:16:48;;;;;;;24.40;11.90;;;;;;;6.38;100.00;98352.44;214860;1288;139354;-86